Terminal Aerodrome Forecast
Issued by NWS Upton, NY

Home | Current Version | Previous Version | Text Only | Print | Product List | Glossary On
Versions: 1 2 3 4 5 6 7 8 9 10 11 12 13 14 15 16 17 18 19 20 21 22 23 24 25 26 27 28 29
000
FTUS41 KOKX 232000 AAA
TAFLGA
TAF AMD
KLGA 232052Z 2321/2418 32021G34KT P6SM BKN050
     FM240100 32020G28KT P6SM SKC
     FM241200 33020G31KT P6SM SKC
     FM241500 33027G37KT P6SM SKC=

USA.gov is the U.S. government's official web portal to all federal, state and local government web resources and services.